首页
METAR-TAF:

METAR-TAF

机场 :

舍爾納克, 土耳其

纬度: 37-21-50N, 经度: 42-03-36E, 海拔: 621米

当前天气观测

该预报发布于39分钟前的02:50 UTC
风速8节,风向西
温度 16°C
湿度 45%
气压 1013 hPa
能见度10公里或以上
1500米以下无云,无积雨云

METAR: LTCV 010250Z 26008KT CAVOK 16/04 Q1013

时间: 06:29 (03:29 UTC)

预报

该预报发布于1小时和49分钟前的01:40 UTC
预报有效从01日的 03点(UTC)到 01日的 12点(UTC)
风速2节,风向多变
能见度10公里或以上
1500米以下无云,无积雨云

TAF: LTCV 010140Z 0103/0112 VRB02KT CAVOK

超过4000个机场的气象观测和天气预报(METAR&TAF报告)。

可查询的气象台以黄色和红色小点在地图上表示。

将鼠标移到小点上方,可查看气象台名称。

然后点击查看天气观测和预报。

如需切换地图:点击带黑十字的绿色按钮放大地图;点击带横线的绿色按钮缩小地图;或者点击绿色箭头查看邻近地区的地图。


METAR-TAF: